sensor_id;sensor_type;location;lat;lon;timestamp;P1;durP1;ratioP1;P2;durP2;ratioP2
51020;SDS011;38907;45.562;8.856;2023-03-23T00:04:27;8.35;;;6.20;;
51020;SDS011;38907;45.562;8.856;2023-03-23T00:09:30;9.80;;;7.63;;
51020;SDS011;38907;45.562;8.856;2023-03-23T00:14:35;9.88;;;8.02;;
51020;SDS011;38907;45.562;8.856;2023-03-23T00:19:41;13.65;;;8.30;;
51020;SDS011;38907;45.562;8.856;2023-03-23T00:24:47;12.90;;;8.45;;
51020;SDS011;38907;45.562;8.856;2023-03-23T00:29:51;12.07;;;8.02;;
51020;SDS011;38907;45.562;8.856;2023-03-23T00:34:53;12.43;;;8.52;;
51020;SDS011;38907;45.562;8.856;2023-03-23T00:39:55;11.70;;;8.57;;
51020;SDS011;38907;45.562;8.856;2023-03-23T00:45:02;11.43;;;8.63;;
51020;SDS011;38907;45.562;8.856;2023-03-23T00:50:10;15.88;;;10.40;;
51020;SDS011;38907;45.562;8.856;2023-03-23T00:55:13;16.45;;;9.75;;
51020;SDS011;38907;45.562;8.856;2023-03-23T01:00:16;13.00;;;9.95;;
51020;SDS011;38907;45.562;8.856;2023-03-23T01:05:19;14.75;;;10.60;;
51020;SDS011;38907;45.562;8.856;2023-03-23T01:10:21;18.17;;;11.88;;
51020;SDS011;38907;45.562;8.856;2023-03-23T01:15:28;19.05;;;11.50;;
51020;SDS011;38907;45.562;8.856;2023-03-23T01:20:31;17.10;;;11.38;;
51020;SDS011;38907;45.562;8.856;2023-03-23T01:25:35;18.80;;;12.20;;
51020;SDS011;38907;45.562;8.856;2023-03-23T01:30:38;20.00;;;12.25;;
51020;SDS011;38907;45.562;8.856;2023-03-23T01:35:40;17.38;;;11.02;;
51020;SDS011;38907;45.562;8.856;2023-03-23T01:40:42;19.05;;;13.15;;
51020;SDS011;38907;45.562;8.856;2023-03-23T01:45:46;19.17;;;13.18;;
51020;SDS011;38907;45.562;8.856;2023-03-23T01:50:50;19.80;;;13.10;;
51020;SDS011;38907;45.562;8.856;2023-03-23T01:55:56;25.25;;;14.02;;
51020;SDS011;38907;45.562;8.856;2023-03-23T02:01:03;19.05;;;13.35;;
51020;SDS011;38907;45.562;8.856;2023-03-23T02:06:07;18.15;;;13.95;;
51020;SDS011;38907;45.562;8.856;2023-03-23T02:11:13;24.00;;;15.27;;
51020;SDS011;38907;45.562;8.856;2023-03-23T02:16:19;22.10;;;14.10;;
51020;SDS011;38907;45.562;8.856;2023-03-23T02:21:42;22.00;;;15.20;;
51020;SDS011;38907;45.562;8.856;2023-03-23T02:27:13;28.45;;;15.85;;
51020;SDS011;38907;45.562;8.856;2023-03-23T02:32:23;24.80;;;15.90;;
51020;SDS011;38907;45.562;8.856;2023-03-23T02:37:43;21.92;;;15.25;;
51020;SDS011;38907;45.562;8.856;2023-03-23T02:42:48;22.40;;;15.15;;
51020;SDS011;38907;45.562;8.856;2023-03-23T02:47:54;24.08;;;15.60;;
51020;SDS011;38907;45.562;8.856;2023-03-23T02:58:01;25.67;;;16.95;;
51020;SDS011;38907;45.562;8.856;2023-03-23T03:03:03;25.20;;;16.80;;
51020;SDS011;38907;45.562;8.856;2023-03-23T03:08:09;29.40;;;18.20;;
51020;SDS011;38907;45.562;8.856;2023-03-23T03:13:22;24.80;;;17.00;;
51020;SDS011;38907;45.562;8.856;2023-03-23T03:18:34;27.73;;;17.55;;
51020;SDS011;38907;45.562;8.856;2023-03-23T03:23:42;25.90;;;16.65;;
51020;SDS011;38907;45.562;8.856;2023-03-23T03:28:45;26.67;;;16.17;;
51020;SDS011;38907;45.562;8.856;2023-03-23T03:33:48;27.17;;;17.30;;
51020;SDS011;38907;45.562;8.856;2023-03-23T03:38:52;26.00;;;17.05;;
51020;SDS011;38907;45.562;8.856;2023-03-23T03:43:57;27.67;;;17.10;;
51020;SDS011;38907;45.562;8.856;2023-03-23T03:48:59;25.35;;;16.30;;
51020;SDS011;38907;45.562;8.856;2023-03-23T03:54:04;27.10;;;16.13;;
51020;SDS011;38907;45.562;8.856;2023-03-23T03:59:06;26.42;;;15.75;;
51020;SDS011;38907;45.562;8.856;2023-03-23T04:04:09;25.83;;;16.02;;
51020;SDS011;38907;45.562;8.856;2023-03-23T04:09:13;23.65;;;15.93;;
51020;SDS011;38907;45.562;8.856;2023-03-23T04:14:14;28.10;;;16.67;;
51020;SDS011;38907;45.562;8.856;2023-03-23T04:19:16;23.85;;;16.25;;
51020;SDS011;38907;45.562;8.856;2023-03-23T04:24:20;27.27;;;16.80;;
51020;SDS011;38907;45.562;8.856;2023-03-23T04:29:24;27.08;;;17.33;;
51020;SDS011;38907;45.562;8.856;2023-03-23T04:34:26;24.38;;;15.65;;
51020;SDS011;38907;45.562;8.856;2023-03-23T04:39:29;24.05;;;16.38;;
51020;SDS011;38907;45.562;8.856;2023-03-23T04:44:33;26.25;;;16.52;;
51020;SDS011;38907;45.562;8.856;2023-03-23T04:49:35;27.08;;;15.85;;
51020;SDS011;38907;45.562;8.856;2023-03-23T04:54:38;28.77;;;16.42;;
51020;SDS011;38907;45.562;8.856;2023-03-23T04:59:41;25.42;;;15.73;;
51020;SDS011;38907;45.562;8.856;2023-03-23T05:04:43;29.30;;;17.25;;
51020;SDS011;38907;45.562;8.856;2023-03-23T05:09:47;25.33;;;15.95;;
51020;SDS011;38907;45.562;8.856;2023-03-23T05:14:50;26.33;;;15.80;;
51020;SDS011;38907;45.562;8.856;2023-03-23T05:19:52;27.50;;;16.02;;
51020;SDS011;38907;45.562;8.856;2023-03-23T05:24:57;24.75;;;16.35;;
51020;SDS011;38907;45.562;8.856;2023-03-23T05:29:59;22.50;;;14.43;;
51020;SDS011;38907;45.562;8.856;2023-03-23T05:35:01;25.83;;;14.90;;
51020;SDS011;38907;45.562;8.856;2023-03-23T05:40:06;24.90;;;16.48;;
51020;SDS011;38907;45.562;8.856;2023-03-23T05:45:09;25.30;;;16.67;;
51020;SDS011;38907;45.562;8.856;2023-03-23T05:50:12;24.55;;;15.70;;
51020;SDS011;38907;45.562;8.856;2023-03-23T05:55:15;25.67;;;17.52;;
51020;SDS011;38907;45.562;8.856;2023-03-23T06:05:23;29.52;;;16.55;;
51020;SDS011;38907;45.562;8.856;2023-03-23T06:10:27;29.67;;;16.30;;
51020;SDS011;38907;45.562;8.856;2023-03-23T06:15:30;25.50;;;16.25;;
51020;SDS011;38907;45.562;8.856;2023-03-23T06:20:32;29.20;;;17.27;;
51020;SDS011;38907;45.562;8.856;2023-03-23T06:25:36;27.73;;;16.83;;
51020;SDS011;38907;45.562;8.856;2023-03-23T06:30:38;26.08;;;15.88;;
51020;SDS011;38907;45.562;8.856;2023-03-23T06:35:40;31.17;;;15.23;;
51020;SDS011;38907;45.562;8.856;2023-03-23T06:40:44;24.30;;;15.40;;
51020;SDS011;38907;45.562;8.856;2023-03-23T06:45:47;20.40;;;13.38;;
51020;SDS011;38907;45.562;8.856;2023-03-23T06:50:49;23.20;;;13.70;;
51020;SDS011;38907;45.562;8.856;2023-03-23T06:55:52;23.63;;;14.80;;
51020;SDS011;38907;45.562;8.856;2023-03-23T07:00:54;23.42;;;14.93;;
51020;SDS011;38907;45.562;8.856;2023-03-23T07:05:58;22.85;;;14.23;;
51020;SDS011;38907;45.562;8.856;2023-03-23T07:11:01;24.38;;;14.48;;
51020;SDS011;38907;45.562;8.856;2023-03-23T07:16:04;18.40;;;13.38;;
51020;SDS011;38907;45.562;8.856;2023-03-23T07:26:10;23.45;;;13.70;;
51020;SDS011;38907;45.562;8.856;2023-03-23T07:31:12;19.58;;;13.55;;
51020;SDS011;38907;45.562;8.856;2023-03-23T07:36:14;21.70;;;13.98;;
51020;SDS011;38907;45.562;8.856;2023-03-23T07:41:17;24.55;;;14.07;;
51020;SDS011;38907;45.562;8.856;2023-03-23T07:46:19;20.85;;;14.52;;
51020;SDS011;38907;45.562;8.856;2023-03-23T07:51:21;20.75;;;14.18;;
51020;SDS011;38907;45.562;8.856;2023-03-23T07:56:24;20.63;;;14.05;;
51020;SDS011;38907;45.562;8.856;2023-03-23T08:06:28;21.15;;;14.07;;
51020;SDS011;38907;45.562;8.856;2023-03-23T08:11:35;23.08;;;13.80;;
51020;SDS011;38907;45.562;8.856;2023-03-23T08:16:37;23.27;;;13.98;;
51020;SDS011;38907;45.562;8.856;2023-03-23T08:21:39;21.30;;;13.90;;
51020;SDS011;38907;45.562;8.856;2023-03-23T08:26:42;18.50;;;13.35;;
51020;SDS011;38907;45.562;8.856;2023-03-23T08:31:44;24.50;;;14.02;;
51020;SDS011;38907;45.562;8.856;2023-03-23T08:36:47;24.02;;;13.40;;
51020;SDS011;38907;45.562;8.856;2023-03-23T08:41:52;19.05;;;13.82;;
51020;SDS011;38907;45.562;8.856;2023-03-23T08:46:54;21.58;;;14.70;;
51020;SDS011;38907;45.562;8.856;2023-03-23T08:51:57;22.17;;;14.48;;
51020;SDS011;38907;45.562;8.856;2023-03-23T08:57:00;25.50;;;13.50;;
51020;SDS011;38907;45.562;8.856;2023-03-23T09:02:03;16.80;;;13.10;;
51020;SDS011;38907;45.562;8.856;2023-03-23T09:07:04;19.35;;;14.82;;
51020;SDS011;38907;45.562;8.856;2023-03-23T09:12:08;21.63;;;14.27;;
51020;SDS011;38907;45.562;8.856;2023-03-23T09:17:11;18.55;;;14.30;;
51020;SDS011;38907;45.562;8.856;2023-03-23T09:22:12;26.30;;;14.90;;
51020;SDS011;38907;45.562;8.856;2023-03-23T09:27:16;21.80;;;14.33;;
51020;SDS011;38907;45.562;8.856;2023-03-23T09:32:19;26.67;;;16.63;;
51020;SDS011;38907;45.562;8.856;2023-03-23T09:37:22;22.23;;;15.00;;
51020;SDS011;38907;45.562;8.856;2023-03-23T09:42:31;23.40;;;15.50;;
51020;SDS011;38907;45.562;8.856;2023-03-23T09:47:46;22.52;;;15.27;;
51020;SDS011;38907;45.562;8.856;2023-03-23T09:52:58;21.50;;;15.15;;
51020;SDS011;38907;45.562;8.856;2023-03-23T09:58:08;23.35;;;16.80;;
51020;SDS011;38907;45.562;8.856;2023-03-23T10:03:14;32.60;;;17.13;;
51020;SDS011;38907;45.562;8.856;2023-03-23T10:08:18;27.98;;;18.20;;
51020;SDS011;38907;45.562;8.856;2023-03-23T10:13:26;28.88;;;18.77;;
51020;SDS011;38907;45.562;8.856;2023-03-23T10:18:47;28.10;;;19.02;;
51020;SDS011;38907;45.562;8.856;2023-03-23T10:23:56;25.48;;;18.17;;
51020;SDS011;38907;45.562;8.856;2023-03-23T10:29:07;23.30;;;17.50;;
51020;SDS011;38907;45.562;8.856;2023-03-23T10:34:16;26.37;;;19.30;;
51020;SDS011;38907;45.562;8.856;2023-03-23T10:39:23;28.13;;;18.75;;
51020;SDS011;38907;45.562;8.856;2023-03-23T10:44:30;30.60;;;18.65;;
51020;SDS011;38907;45.562;8.856;2023-03-23T10:49:34;28.55;;;18.75;;
51020;SDS011;38907;45.562;8.856;2023-03-23T10:54:55;34.15;;;18.73;;
51020;SDS011;38907;45.562;8.856;2023-03-23T11:00:00;29.38;;;19.50;;
51020;SDS011;38907;45.562;8.856;2023-03-23T11:05:12;35.90;;;17.10;;
51020;SDS011;38907;45.562;8.856;2023-03-23T11:10:20;22.55;;;15.52;;
51020;SDS011;38907;45.562;8.856;2023-03-23T11:15:29;23.55;;;15.27;;
51020;SDS011;38907;45.562;8.856;2023-03-23T11:20:34;22.63;;;14.95;;
51020;SDS011;38907;45.562;8.856;2023-03-23T11:25:54;23.45;;;15.75;;
51020;SDS011;38907;45.562;8.856;2023-03-23T11:31:11;20.40;;;15.60;;
51020;SDS011;38907;45.562;8.856;2023-03-23T11:36:14;26.13;;;17.83;;
51020;SDS011;38907;45.562;8.856;2023-03-23T11:41:18;26.50;;;16.33;;
51020;SDS011;38907;45.562;8.856;2023-03-23T11:46:29;24.58;;;17.15;;
51020;SDS011;38907;45.562;8.856;2023-03-23T11:51:37;24.67;;;17.45;;
51020;SDS011;38907;45.562;8.856;2023-03-23T11:56:42;21.42;;;15.77;;
51020;SDS011;38907;45.562;8.856;2023-03-23T12:01:48;23.75;;;15.80;;
51020;SDS011;38907;45.562;8.856;2023-03-23T12:06:56;21.02;;;14.50;;
51020;SDS011;38907;45.562;8.856;2023-03-23T12:12:10;20.20;;;14.23;;
51020;SDS011;38907;45.562;8.856;2023-03-23T12:17:23;21.83;;;13.77;;
51020;SDS011;38907;45.562;8.856;2023-03-23T12:22:37;21.15;;;14.98;;
51020;SDS011;38907;45.562;8.856;2023-03-23T12:27:50;23.73;;;15.07;;
51020;SDS011;38907;45.562;8.856;2023-03-23T12:33:01;16.60;;;13.00;;
51020;SDS011;38907;45.562;8.856;2023-03-23T12:38:18;17.05;;;11.50;;
51020;SDS011;38907;45.562;8.856;2023-03-23T12:43:29;17.73;;;13.35;;
51020;SDS011;38907;45.562;8.856;2023-03-23T12:48:39;13.82;;;10.82;;
51020;SDS011;38907;45.562;8.856;2023-03-23T12:53:44;14.20;;;10.25;;
51020;SDS011;38907;45.562;8.856;2023-03-23T12:58:56;10.25;;;8.52;;
51020;SDS011;38907;45.562;8.856;2023-03-23T13:04:04;17.40;;;10.38;;
51020;SDS011;38907;45.562;8.856;2023-03-23T13:09:11;12.85;;;9.77;;
51020;SDS011;38907;45.562;8.856;2023-03-23T13:14:21;14.00;;;9.88;;
51020;SDS011;38907;45.562;8.856;2023-03-23T13:19:51;14.90;;;10.32;;
51020;SDS011;38907;45.562;8.856;2023-03-23T13:25:07;16.30;;;9.30;;
51020;SDS011;38907;45.562;8.856;2023-03-23T13:30:18;16.55;;;8.90;;
51020;SDS011;38907;45.562;8.856;2023-03-23T13:35:25;15.15;;;7.70;;
51020;SDS011;38907;45.562;8.856;2023-03-23T13:40:34;18.75;;;8.90;;
51020;SDS011;38907;45.562;8.856;2023-03-23T13:45:42;12.45;;;7.18;;
51020;SDS011;38907;45.562;8.856;2023-03-23T13:50:50;8.07;;;6.18;;
51020;SDS011;38907;45.562;8.856;2023-03-23T14:01:18;10.20;;;6.93;;
51020;SDS011;38907;45.562;8.856;2023-03-23T14:06:34;9.63;;;6.28;;
51020;SDS011;38907;45.562;8.856;2023-03-23T14:11:45;9.20;;;6.45;;
51020;SDS011;38907;45.562;8.856;2023-03-23T14:16:52;17.60;;;7.63;;
51020;SDS011;38907;45.562;8.856;2023-03-23T14:21:56;13.57;;;6.83;;
51020;SDS011;38907;45.562;8.856;2023-03-23T14:27:02;11.85;;;7.15;;
51020;SDS011;38907;45.562;8.856;2023-03-23T14:32:11;9.68;;;5.72;;
51020;SDS011;38907;45.562;8.856;2023-03-23T14:37:18;7.45;;;5.68;;
51020;SDS011;38907;45.562;8.856;2023-03-23T14:42:26;11.05;;;5.88;;
51020;SDS011;38907;45.562;8.856;2023-03-23T14:47:31;12.60;;;6.40;;
51020;SDS011;38907;45.562;8.856;2023-03-23T14:52:37;6.85;;;4.88;;
51020;SDS011;38907;45.562;8.856;2023-03-23T14:57:40;13.15;;;5.40;;
51020;SDS011;38907;45.562;8.856;2023-03-23T15:02:43;8.70;;;4.43;;
51020;SDS011;38907;45.562;8.856;2023-03-23T15:07:50;14.25;;;5.35;;
51020;SDS011;38907;45.562;8.856;2023-03-23T15:13:01;9.60;;;5.38;;
51020;SDS011;38907;45.562;8.856;2023-03-23T15:18:03;6.50;;;4.88;;
51020;SDS011;38907;45.562;8.856;2023-03-23T15:23:08;4.93;;;4.43;;
51020;SDS011;38907;45.562;8.856;2023-03-23T15:28:16;5.00;;;4.35;;
51020;SDS011;38907;45.562;8.856;2023-03-23T15:33:20;6.68;;;5.32;;
51020;SDS011;38907;45.562;8.856;2023-03-23T15:38:28;9.52;;;4.60;;
51020;SDS011;38907;45.562;8.856;2023-03-23T15:43:32;7.22;;;5.22;;
51020;SDS011;38907;45.562;8.856;2023-03-23T15:48:45;5.57;;;4.88;;
51020;SDS011;38907;45.562;8.856;2023-03-23T15:53:50;9.85;;;5.05;;
51020;SDS011;38907;45.562;8.856;2023-03-23T15:58:53;11.52;;;5.50;;
51020;SDS011;38907;45.562;8.856;2023-03-23T16:03:58;7.47;;;5.32;;
51020;SDS011;38907;45.562;8.856;2023-03-23T16:09:03;13.85;;;5.53;;
51020;SDS011;38907;45.562;8.856;2023-03-23T16:14:06;8.52;;;4.97;;
51020;SDS011;38907;45.562;8.856;2023-03-23T16:19:09;8.37;;;6.60;;
51020;SDS011;38907;45.562;8.856;2023-03-23T16:24:14;9.43;;;6.75;;
51020;SDS011;38907;45.562;8.856;2023-03-23T16:29:16;12.50;;;7.20;;
51020;SDS011;38907;45.562;8.856;2023-03-23T16:34:18;11.90;;;7.15;;
51020;SDS011;38907;45.562;8.856;2023-03-23T16:39:21;12.32;;;6.70;;
51020;SDS011;38907;45.562;8.856;2023-03-23T16:44:23;10.50;;;6.70;;
51020;SDS011;38907;45.562;8.856;2023-03-23T16:49:25;19.30;;;7.03;;
51020;SDS011;38907;45.562;8.856;2023-03-23T16:54:28;12.10;;;7.45;;
51020;SDS011;38907;45.562;8.856;2023-03-23T16:59:30;8.63;;;6.85;;
51020;SDS011;38907;45.562;8.856;2023-03-23T17:04:32;10.25;;;5.97;;
51020;SDS011;38907;45.562;8.856;2023-03-23T17:09:35;14.02;;;5.97;;
51020;SDS011;38907;45.562;8.856;2023-03-23T17:14:37;17.48;;;6.45;;
51020;SDS011;38907;45.562;8.856;2023-03-23T17:19:40;14.63;;;6.13;;
51020;SDS011;38907;45.562;8.856;2023-03-23T17:24:43;19.33;;;10.05;;
51020;SDS011;38907;45.562;8.856;2023-03-23T17:29:46;14.38;;;8.80;;
51020;SDS011;38907;45.562;8.856;2023-03-23T17:34:48;7.33;;;5.73;;
51020;SDS011;38907;45.562;8.856;2023-03-23T17:39:52;8.07;;;5.35;;
51020;SDS011;38907;45.562;8.856;2023-03-23T17:44:54;12.27;;;5.55;;
51020;SDS011;38907;45.562;8.856;2023-03-23T17:49:55;8.93;;;5.82;;
51020;SDS011;38907;45.562;8.856;2023-03-23T17:54:59;10.35;;;4.30;;
51020;SDS011;38907;45.562;8.856;2023-03-23T18:00:00;8.13;;;5.03;;
51020;SDS011;38907;45.562;8.856;2023-03-23T18:05:03;5.97;;;4.05;;
51020;SDS011;38907;45.562;8.856;2023-03-23T18:10:09;6.35;;;4.68;;
51020;SDS011;38907;45.562;8.856;2023-03-23T18:15:11;7.65;;;4.22;;
51020;SDS011;38907;45.562;8.856;2023-03-23T18:20:13;5.80;;;4.50;;
51020;SDS011;38907;45.562;8.856;2023-03-23T18:25:17;6.68;;;4.30;;
51020;SDS011;38907;45.562;8.856;2023-03-23T18:30:19;10.35;;;5.50;;
51020;SDS011;38907;45.562;8.856;2023-03-23T18:35:31;7.70;;;4.57;;
51020;SDS011;38907;45.562;8.856;2023-03-23T18:40:35;8.48;;;5.38;;
51020;SDS011;38907;45.562;8.856;2023-03-23T18:45:46;7.00;;;5.18;;
51020;SDS011;38907;45.562;8.856;2023-03-23T18:50:49;7.55;;;5.28;;
51020;SDS011;38907;45.562;8.856;2023-03-23T18:56:01;9.18;;;5.47;;
51020;SDS011;38907;45.562;8.856;2023-03-23T19:01:05;6.90;;;4.93;;
51020;SDS011;38907;45.562;8.856;2023-03-23T19:06:11;5.63;;;4.72;;
51020;SDS011;38907;45.562;8.856;2023-03-23T19:11:21;7.80;;;5.10;;
51020;SDS011;38907;45.562;8.856;2023-03-23T19:16:38;8.20;;;5.72;;
51020;SDS011;38907;45.562;8.856;2023-03-23T19:21:41;10.02;;;6.15;;
51020;SDS011;38907;45.562;8.856;2023-03-23T19:26:45;8.70;;;6.00;;
51020;SDS011;38907;45.562;8.856;2023-03-23T19:31:47;10.90;;;6.05;;
51020;SDS011;38907;45.562;8.856;2023-03-23T19:36:49;8.75;;;5.95;;
51020;SDS011;38907;45.562;8.856;2023-03-23T19:41:53;7.97;;;6.27;;
51020;SDS011;38907;45.562;8.856;2023-03-23T19:46:55;9.70;;;6.63;;
51020;SDS011;38907;45.562;8.856;2023-03-23T19:51:57;17.77;;;8.32;;
51020;SDS011;38907;45.562;8.856;2023-03-23T19:57:00;8.93;;;6.78;;
51020;SDS011;38907;45.562;8.856;2023-03-23T20:02:02;10.95;;;6.72;;
51020;SDS011;38907;45.562;8.856;2023-03-23T20:07:05;10.90;;;6.13;;
51020;SDS011;38907;45.562;8.856;2023-03-23T20:17:11;8.13;;;6.32;;
51020;SDS011;38907;45.562;8.856;2023-03-23T20:22:13;9.25;;;6.47;;
51020;SDS011;38907;45.562;8.856;2023-03-23T20:27:18;12.48;;;6.57;;
51020;SDS011;38907;45.562;8.856;2023-03-23T20:32:20;8.68;;;6.68;;
51020;SDS011;38907;45.562;8.856;2023-03-23T20:37:22;12.52;;;8.40;;
51020;SDS011;38907;45.562;8.856;2023-03-23T20:42:26;14.90;;;8.73;;
51020;SDS011;38907;45.562;8.856;2023-03-23T20:47:32;11.48;;;8.15;;
51020;SDS011;38907;45.562;8.856;2023-03-23T20:52:34;9.77;;;7.07;;
51020;SDS011;38907;45.562;8.856;2023-03-23T20:57:38;10.25;;;7.38;;
51020;SDS011;38907;45.562;8.856;2023-03-23T21:02:41;9.95;;;7.47;;
51020;SDS011;38907;45.562;8.856;2023-03-23T21:07:42;13.07;;;7.93;;
51020;SDS011;38907;45.562;8.856;2023-03-23T21:12:46;9.45;;;6.70;;
51020;SDS011;38907;45.562;8.856;2023-03-23T21:17:47;10.90;;;6.93;;
51020;SDS011;38907;45.562;8.856;2023-03-23T21:22:50;13.50;;;7.10;;
51020;SDS011;38907;45.562;8.856;2023-03-23T21:27:53;13.23;;;8.67;;
51020;SDS011;38907;45.562;8.856;2023-03-23T21:32:56;9.70;;;7.00;;
51020;SDS011;38907;45.562;8.856;2023-03-23T21:37:58;11.23;;;7.82;;
51020;SDS011;38907;45.562;8.856;2023-03-23T21:43:03;10.30;;;8.73;;
51020;SDS011;38907;45.562;8.856;2023-03-23T21:48:05;9.70;;;7.43;;
51020;SDS011;38907;45.562;8.856;2023-03-23T21:53:07;16.05;;;10.07;;
51020;SDS011;38907;45.562;8.856;2023-03-23T21:58:13;13.90;;;8.40;;
51020;SDS011;38907;45.562;8.856;2023-03-23T22:08:22;17.63;;;10.35;;
51020;SDS011;38907;45.562;8.856;2023-03-23T22:13:26;14.57;;;9.65;;
51020;SDS011;38907;45.562;8.856;2023-03-23T22:18:29;13.63;;;7.90;;
51020;SDS011;38907;45.562;8.856;2023-03-23T22:23:34;11.45;;;8.25;;
51020;SDS011;38907;45.562;8.856;2023-03-23T22:28:37;10.43;;;7.53;;
51020;SDS011;38907;45.562;8.856;2023-03-23T22:33:40;11.18;;;6.72;;
51020;SDS011;38907;45.562;8.856;2023-03-23T22:38:42;8.25;;;7.07;;
51020;SDS011;38907;45.562;8.856;2023-03-23T22:43:48;11.23;;;8.27;;
51020;SDS011;38907;45.562;8.856;2023-03-23T22:53:51;14.73;;;8.00;;
51020;SDS011;38907;45.562;8.856;2023-03-23T22:58:55;10.30;;;6.40;;
51020;SDS011;38907;45.562;8.856;2023-03-23T23:03:59;11.35;;;7.75;;
51020;SDS011;38907;45.562;8.856;2023-03-23T23:09:02;8.18;;;5.63;;
51020;SDS011;38907;45.562;8.856;2023-03-23T23:14:06;11.18;;;6.78;;
51020;SDS011;38907;45.562;8.856;2023-03-23T23:24:10;7.88;;;6.65;;
51020;SDS011;38907;45.562;8.856;2023-03-23T23:29:13;10.93;;;7.05;;
51020;SDS011;38907;45.562;8.856;2023-03-23T23:34:16;9.52;;;6.50;;
51020;SDS011;38907;45.562;8.856;2023-03-23T23:39:18;9.20;;;6.82;;
51020;SDS011;38907;45.562;8.856;2023-03-23T23:44:21;13.55;;;7.10;;
51020;SDS011;38907;45.562;8.856;2023-03-23T23:54:26;8.48;;;6.50;;
51020;SDS011;38907;45.562;8.856;2023-03-23T23:59:31;11.50;;;7.28;;
